Time;durP1;ratioP1;P1;durP2;ratioP2;P2;SDS_P1;SDS_P2;PMS_P1;PMS_P2;Temp;Humidity;BMP_temperature;BMP_pressure;BME280_temperature;BME280_humidity;BME280_pressure;Samples;Min_cycle;Max_cycle;Signal;HPM_P1;HPM_P2
2023/11/25 11:07:56;;;;;;;30.23;13.95;;;;;;;-0.63;56.27;97427.56;6299084;22;20122;-92
2023/11/25 11:11:16;;;;;;;40.72;16.52;;;;;;;-0.43;56.79;97487.44;6280493;22;20031;-92
2023/11/25 11:14:29;;;;;;;32.65;15.15;;;;;;;-0.55;55.78;97440.34;6278924;22;20019;-93
2023/11/25 11:17:25;;;;;;;42.25;15.43;;;;;;;0.05;55.90;97492.75;6234159;22;20008;-91
2023/11/25 11:20:59;;;;;;;40.40;16.15;;;;;;;-0.15;56.09;97491.94;6282266;22;20102;-91
2023/11/25 11:26:31;;;;;;;39.30;17.15;;;;;;;-0.06;56.30;97524.34;6331271;22;20023;-92
2023/11/25 11:29:31;;;;;;;49.65;15.48;;;;;;;-0.22;55.81;97529.09;6254130;22;20024;-91
2023/11/25 11:32:29;;;;;;;29.15;13.95;;;;;;;-0.66;56.31;97465.72;6276687;22;20024;-90
2023/11/25 11:35:08;;;;;;;34.15;15.95;;;;;;;-0.52;56.95;97480.03;6248971;22;20012;-91
2023/11/25 11:38:10;;;;;;;32.55;14.52;;;;;;;-0.55;56.67;97503.97;6230351;22;20016;-91
2023/11/25 11:41:30;;;;;;;34.72;15.45;;;;;;;-0.38;56.45;97557.97;6227418;22;20030;-91
2023/11/25 11:45:27;;;;;;;32.03;15.88;;;;;;;-0.41;57.13;97565.81;6197905;23;20015;-90
2023/11/25 11:48:04;;;;;;;35.47;16.25;;;;;;;-0.56;56.90;97548.78;6192039;23;20020;-91
2023/11/25 11:50:33;;;;;;;41.45;17.63;;;;;;;-0.26;57.08;97589.81;6217691;23;20024;-93
2023/11/25 11:53:28;;;;;;;;;;;;;;;-0.30;57.02;97581.53;6219205;22;20321;-91
2023/11/25 18:15:29;;;;;;;28.85;13.77;;;;;;;-1.57;60.98;98065.59;6287321;22;20012;-88
2023/11/25 19:47:47;;;;;;;34.15;16.23;;;;;;;-0.07;57.73;98162.75;6283906;22;20011;-91
2023/11/25 20:50:38;;;;;;;37.08;16.65;;;;;;;0.06;58.38;98268.84;6299920;22;20003;-88
2023/11/25 21:00:51;;;;;;;36.92;16.08;;;;;;;-0.58;58.31;98178.91;6293756;22;20043;-89
2023/11/25 21:04:19;;;;;;;42.05;18.13;;;;;;;-0.21;58.47;98218.09;6287642;22;20042;-89
2023/11/25 21:45:12;;;;;;;41.92;18.10;;;;;;;-0.46;60.86;98280.66;6261890;22;20034;-92
2023/11/25 21:48:19;;;;;;;57.08;20.00;;;;;;;-0.58;60.99;98242.50;6181601;23;20025;-91
2023/11/25 21:51:07;;;;;;;40.30;17.95;;;;;;;-0.25;60.45;98282.28;6109155;23;20032;-87
2023/11/25 21:53:34;;;;;;;47.60;18.38;;;;;;;-0.67;60.70;98218.06;6110983;23;20033;-87
2023/11/25 21:56:00;;;;;;;42.53;17.92;;;;;;;-0.18;60.72;98282.00;6113132;23;20025;-86
2023/11/25 21:59:03;;;;;;;41.75;19.25;;;;;;;-0.55;60.50;98215.16;6145937;23;20026;-87
2023/11/25 22:01:37;;;;;;;37.88;16.75;;;;;;;-0.38;60.22;98213.00;6145015;23;20117;-89
2023/11/25 22:04:47;;;;;;;41.70;17.42;;;;;;;-0.13;59.91;98251.66;6023424;23;20029;-87
2023/11/25 22:07:16;;;;;;;37.00;17.02;;;;;;;-0.04;59.90;98279.59;5983153;23;20028;-89
2023/11/25 22:10:10;;;;;;;40.30;18.25;;;;;;;-0.41;59.62;98213.53;6027862;23;20052;-90
2023/11/25 22:12:38;;;;;;;45.15;18.92;;;;;;;0.03;59.82;98288.19;5958403;23;20031;-90
2023/11/25 22:15:08;;;;;;;39.72;16.90;;;;;;;0.16;59.90;98302.97;5986514;23;20003;-90
2023/11/25 22:17:42;;;;;;;35.45;17.17;;;;;;;-0.52;60.11;98222.66;5967868;23;20023;-92
2023/11/25 22:20:16;;;;;;;37.78;17.77;;;;;;;0.06;60.02;98303.75;6004753;24;20027;-92
2023/11/25 22:23:16;;;;;;;52.53;18.70;;;;;;;-0.11;59.79;98247.63;6030898;23;20039;-93
2023/11/25 22:25:54;;;;;;;46.60;18.67;;;;;;;0.18;59.12;98276.63;6053921;23;20449;-91
2023/11/25 22:28:21;;;;;;;42.75;17.60;;;;;;;-0.24;59.02;98215.94;6022830;23;20410;-87
2023/11/25 22:31:11;;;;;;;40.33;18.23;;;;;;;0.29;59.42;98312.34;6053964;23;20111;-93
2023/11/25 22:33:40;;;;;;;44.67;17.45;;;;;;;0.00;60.08;98259.19;6029083;23;20055;-91
2023/11/25 22:36:39;;;;;;;36.50;16.73;;;;;;;0.42;59.23;98292.97;6010720;23;20043;-92
2023/11/25 22:39:05;;;;;;;35.28;16.10;;;;;;;0.46;58.91;98283.28;6005618;23;20024;-89
2023/11/25 22:41:33;;;;;;;39.65;16.83;;;;;;;0.54;58.65;98300.78;6142988;23;20025;-86
2023/11/25 22:44:18;;;;;;;37.90;17.48;;;;;;;0.51;58.45;98309.38;6180430;23;20044;-91
2023/11/25 22:47:08;;;;;;;35.50;16.13;;;;;;;0.37;58.92;98287.63;6209185;23;20048;-93
2023/11/25 22:49:38;;;;;;;37.90;16.85;;;;;;;0.43;59.05;98283.84;6206697;23;20175;-87
2023/11/25 22:52:05;;;;;;;39.75;17.40;;;;;;;0.68;58.58;98328.69;6213145;23;20291;-91
2023/11/25 22:54:44;;;;;;;44.17;17.92;;;;;;;0.27;58.90;98258.88;6267913;23;20055;-88
2023/11/25 22:57:18;;;;;;;37.30;18.40;;;;;;;0.76;58.81;98333.50;6237922;23;20019;-91
2023/11/25 22:59:48;;;;;;;41.20;17.25;;;;;;;0.64;58.35;98325.75;6210924;23;20027;-88
2023/11/25 23:02:15;;;;;;;38.55;16.75;;;;;;;0.43;59.18;98308.03;6235880;23;20045;-85
2023/11/25 23:04:46;;;;;;;50.78;19.77;;;;;;;0.52;58.81;98314.47;6209808;23;20024;-91
2023/11/25 23:07:12;;;;;;;40.13;17.75;;;;;;;0.35;59.03;98322.84;6183194;23;20020;-88
2023/11/25 23:09:38;;;;;;;42.35;18.50;;;;;;;0.25;59.38;98279.84;6236851;23;20039;-93
2023/11/25 23:12:05;;;;;;;42.90;18.88;;;;;;;0.28;58.61;98273.94;6265384;23;20026;-88
2023/11/25 23:14:31;;;;;;;38.95;18.52;;;;;;;0.44;58.58;98305.09;6261849;23;20365;-93
2023/11/25 23:16:58;;;;;;;48.42;19.92;;;;;;;0.10;58.50;98253.81;6239911;23;20020;-92
2023/11/25 23:19:26;;;;;;;42.72;18.90;;;;;;;0.78;58.66;98362.84;6264288;23;20020;-89
2023/11/25 23:21:54;;;;;;;45.38;18.75;;;;;;;0.46;58.52;98307.50;6213919;23;20024;-93
2023/11/25 23:24:22;;;;;;;39.93;18.37;;;;;;;0.74;58.23;98348.34;6234424;23;20505;-88
2023/11/25 23:26:48;;;;;;;41.60;18.25;;;;;;;0.73;57.93;98352.91;6212236;23;20346;-91
2023/11/25 23:29:15;;;;;;;40.88;16.65;;;;;;;0.73;58.19;98341.31;6208674;23;20024;-88
2023/11/25 23:31:41;;;;;;;39.25;18.25;;;;;;;0.84;58.25;98351.78;6230337;23;20085;-89
2023/11/25 23:34:07;;;;;;;42.63;16.92;;;;;;;0.65;57.74;98300.47;6202859;23;20283;-88
2023/11/25 23:36:33;;;;;;;38.35;16.48;;;;;;;0.79;57.74;98329.47;6199531;23;20021;-89
2023/11/25 23:39:01;;;;;;;40.08;17.13;;;;;;;0.93;57.52;98358.22;6228448;23;20096;-88
2023/11/25 23:41:27;;;;;;;37.13;16.80;;;;;;;0.27;58.02;98261.56;6227414;23;20017;-88
2023/11/25 23:43:53;;;;;;;34.63;16.17;;;;;;;0.50;57.68;98305.88;6224572;23;20111;-89
2023/11/25 23:46:19;;;;;;;47.13;18.80;;;;;;;0.34;58.01;98288.16;6149228;23;20468;-88
2023/11/25 23:48:46;;;;;;;43.65;17.42;;;;;;;0.79;58.09;98354.47;6201390;23;20017;-88
2023/11/25 23:51:12;;;;;;;43.03;18.52;;;;;;;0.54;58.19;98311.53;6187614;23;20031;-88
2023/11/25 23:53:38;;;;;;;41.83;18.10;;;;;;;0.80;57.98;98336.50;6187277;23;20023;-90
2023/11/25 23:56:12;;;;;;;47.83;18.58;;;;;;;0.62;58.24;98298.31;6233438;23;20195;-89
2023/11/25 23:58:39;;;;;;;42.50;17.90;;;;;;;0.79;58.23;98319.50;6157005;23;20032;-87
